Date,TemperatureHighF,TemperatureAvgF,TemperatureLowF,DewpointHighF,DewpointAvgF,DewpointLowF,HumidityHigh,HumidityAvg,HumidityLow,PressureMaxIn,PressureMinIn,WindSpeedMaxMPH,WindSpeedAvgMPH,GustSpeedMaxMPH,PrecipitationSumIn
2013-1-1,38.7,33.1,26.5,27.7,21.6,14.2,86,64,45,30.42,30.30,26,10,26,0.00
2013-1-2,46.6,37.8,31.5,17.3,13.0,9.9,50,36,26,30.34,30.22,28,10,28,0.00
2013-1-3,50.3,40.5,35.8,18.0,11.6,5.7,37,30,23,30.33,30.20,22,10,22,0.00
2013-1-4,49.9,37.2,25.6,13.0,8.6,4.2,55,32,18,30.42,30.32,19,6,19,0.00
2013-1-5,52.3,37.2,25.3,22.6,10.7,1.0,55,35,17,30.50,30.34,13,5,13,0.00
2013-1-6,41.9,35.8,32.8,34.9,27.5,11.2,87,74,34,30.34,30.09,42,16,42,0.14
2013-1-7,48.4,36.6,27.4,34.5,27.1,18.2,92,71,37,30.23,30.06,18,2,18,0.03
2013-1-8,63.4,45.2,29.4,32.3,25.4,14.1,72,49,23,30.32,30.23,7,3,14,0.00
2013-1-9,62.8,49.8,39.6,40.3,31.7,26.2,82,51,32,30.29,30.03,27,6,27,0.00
2013-1-10,46.1,37.5,32.0,35.5,31.5,25.7,89,80,45,30.04,29.84,56,26,56,0.06
2013-1-11,35.2,28.2,20.8,25.4,20.5,16.7,86,74,50,30.31,30.12,18,9,34,0.00
2013-1-12,38.7,28.4,18.5,25.0,17.0,13.1,92,65,36,30.29,30.17,14,3,24,0.00
2013-1-13,40.4,29.4,18.2,23.8,16.8,10.6,84,61,37,30.32,30.20,17,5,17,0.00
2013-1-14,36.5,27.0,20.0,15.2,4.7,-2.0,61,39,23,30.50,30.27,20,6,20,0.00
2013-1-15,41.2,31.9,23.1,16.7,9.1,-1.2,49,38,29,30.63,30.49,28,9,28,0.00
2013-1-16,47.6,40.8,34.2,21.8,18.8,14.6,49,41,34,30.57,30.37,29,15,29,0.00
2013-1-17,54.6,46.0,40.8,19.3,16.7,14.7,38,31,22,30.42,30.28,27,13,27,0.00
2013-1-18,57.9,48.2,43.1,21.6,17.4,14.7,35,29,22,30.33,30.24,24,10,24,0.00
2013-1-19,58.7,47.9,31.7,19.9,16.0,13.0,53,29,19,30.36,30.26,21,9,21,0.00
2013-1-20,61.7,44.2,30.2,18.3,14.3,10.6,58,33,15,30.34,30.23,17,6,17,0.00
2013-1-21,62.6,48.3,32.6,14.7,9.7,5.0,45,22,12,30.28,30.20,19,7,19,0.00
2013-1-22,63.6,48.8,32.9,20.8,11.1,3.9,47,24,11,30.28,30.21,19,6,19,0.00
2013-1-23,64.3,53.0,40.5,40.1,28.7,18.4,72,40,23,30.27,30.19,17,5,17,0.00
2013-1-24,55.3,50.5,47.0,51.2,43.2,33.0,86,77,51,30.22,30.13,14,3,14,0.01
2013-1-25,48.7,47.4,45.8,44.7,42.8,39.8,89,84,78,30.25,30.05,11,5,18,0.77
2013-1-26,50.1,47.8,45.1,46.3,43.7,41.2,89,86,85,30.06,29.96,24,9,24,0.24
2013-1-27,45.3,43.8,41.1,42.0,40.2,37.5,90,87,83,30.06,30.00,33,15,33,0.01
2013-1-28,40.5,34.4,30.8,31.9,29.0,25.9,89,81,60,30.31,30.04,31,12,40,0.01
2013-1-29,46.3,37.1,30.6,37.8,30.5,23.6,88,77,59,30.38,30.26,37,12,37,0.00
2013-1-30,55.6,43.6,33.5,32.4,29.0,26.5,79,58,37,30.47,30.34,23,8,23,0.00
2013-1-31,58.2,47.9,33.8,34.7,30.5,27.9,79,52,38,30.37,30.26,21,8,21,0.00
2013-2-1,62.9,46.3,33.3,33.8,30.0,25.9,77,57,29,30.36,30.27,14,4,14,0.00
2013-2-2,62.7,51.5,38.2,42.3,31.3,26.9,78,48,27,30.36,30.24,15,4,15,0.00
2013-2-3,59.3,48.3,37.1,44.2,40.4,33.2,86,75,53,30.24,30.08,19,4,19,0.01
2013-2-4,63.4,46.2,33.5,42.5,34.1,30.0,88,68,30,30.23,30.11,16,2,16,0.00
2013-2-5,61.9,46.6,33.3,39.3,33.0,28.4,86,62,30,30.18,30.06,24,5,24,0.00
2013-2-6,59.7,45.3,32.1,42.3,32.0,24.6,81,61,32,30.19,30.00,28,7,28,0.00
2013-2-7,60.5,43.8,31.9,41.5,31.7,19.7,92,67,22,30.24,29.99,47,8,47,0.00
2013-2-8,35.2,31.6,28.9,31.7,28.3,25.8,88,87,86,30.01,29.93,43,21,47,0.87
2013-2-9,34.4,30.8,27.8,31.2,27.7,24.8,89,88,87,30.23,29.97,34,16,35,0.02
2013-2-10,35.9,32.5,28.8,32.5,29.4,25.8,89,88,84,30.23,30.14,23,11,31,0.11
2013-2-11,42.2,31.3,21.5,34.5,24.0,13.2,89,75,38,30.41,30.16,14,2,14,0.00
2013-2-12,48.9,32.5,19.6,21.0,15.6,10.3,79,54,25,30.54,30.41,13,3,13,0.00
2013-2-13,56.8,40.9,28.0,32.3,22.7,14.1,79,51,27,30.45,30.30,17,4,17,0.00
2013-2-14,59.8,47.3,31.0,31.4,25.5,22.5,78,45,28,30.37,30.24,21,7,21,0.00
2013-2-15,57.7,50.6,45.6,24.0,18.2,13.6,42,28,21,30.34,30.23,38,15,38,0.00
2013-2-16,62.5,49.2,34.9,21.0,16.4,8.8,56,29,13,30.32,30.10,22,7,22,0.00
2013-2-17,57.3,44.2,34.4,35.0,21.6,15.8,67,42,24,30.12,30.01,31,10,31,0.00
2013-2-18,60.0,41.7,28.6,38.4,25.8,16.9,86,58,20,30.16,30.01,17,4,17,0.00
2013-2-19,36.2,33.2,30.7,32.7,29.8,27.6,92,87,85,30.02,29.80,42,19,42,0.53
2013-2-20,32.5,29.7,27.7,29.6,26.6,24.4,89,88,86,30.14,29.74,44,18,44,0.58
2013-2-21,40.4,31.9,25.5,35.2,28.2,22.2,89,86,75,30.26,30.11,28,8,28,0.04
2013-2-22,51.6,34.5,20.4,31.2,21.8,13.9,87,65,29,30.40,30.24,13,2,13,0.00
2013-2-23,51.3,38.3,26.8,35.5,27.4,22.0,85,66,41,30.35,30.01,37,12,37,0.00
2013-2-24,47.8,38.0,27.2,27.4,13.1,2.8,83,40,18,30.35,30.07,26,8,26,0.00
2013-2-25,47.4,30.2,23.1,13.3,10.7,6.9,63,46,20,30.39,30.34,13,4,13,0.00
2013-2-26,55.0,45.1,29.9,19.2,15.2,9.6,50,30,22,30.29,30.14,15,9,27,0.00
2013-2-27,54.0,43.9,35.5,17.2,11.6,5.7,40,27,19,30.43,30.27,22,8,22,0.00
2013-2-28,60.1,48.8,40.9,15.2,10.4,5.3,31,21,15,30.48,30.39,24,9,24,0.00
2013-3-1,65.4,54.9,42.1,23.2,17.5,12.0,39,23,17,30.46,30.33,29,11,29,0.00
2013-3-2,71.3,54.8,39.4,32.3,25.1,20.3,50,33,18,30.36,30.17,22,7,22,0.00
2013-3-3,63.7,50.4,41.6,35.5,26.6,19.4,75,41,21,30.17,29.98,42,18,42,0.00
2013-3-4,58.7,46.1,36.9,42.7,37.3,32.1,87,73,49,30.21,29.98,38,9,38,0.00
2013-3-5,65.3,47.8,35.5,47.3,36.5,28.2,87,67,33,30.21,30.08,25,6,25,0.00
2013-3-6,55.3,42.9,36.3,41.0,36.3,29.3,88,78,53,30.14,30.05,36,14,36,0.00
2013-3-7,44.1,39.7,35.7,40.5,35.9,31.5,88,86,79,30.06,29.94,33,13,33,0.03
2013-3-8,38.4,33.7,31.3,35.1,30.4,28.2,89,88,86,30.12,29.83,39,19,39,0.97
2013-3-9,33.5,33.1,32.7,30.6,30.1,29.5,89,89,88,30.15,30.12,35,18,35,0.38
2013-3-11,67.0,51.7,38.3,39.1,26.7,15.6,80,41,21,30.35,30.16,15,5,28,0.00
2013-3-12,70.5,54.1,36.3,31.6,27.0,18.8,76,40,20,30.24,30.15,22,7,23,0.00
2013-3-13,75.8,57.8,40.2,32.0,29.3,22.8,66,38,15,30.27,30.17,21,6,21,0.00
2013-3-14,78.7,62.9,46.9,43.0,32.3,26.1,68,35,17,30.20,30.09,21,6,21,0.00
2013-3-15,76.1,58.6,44.5,46.6,37.5,21.9,70,49,23,30.12,29.98,27,7,27,0.00
2013-3-16,70.5,58.0,49.0,45.2,28.1,11.4,68,34,19,29.99,29.89,30,12,30,0.00
2013-3-17,72.4,54.9,44.3,48.1,34.5,24.5,77,48,18,30.02,29.91,24,7,24,0.00
2013-3-18,67.5,53.4,43.8,46.1,33.5,21.6,77,49,23,30.10,29.97,24,8,24,0.00
2013-3-19,66.2,53.5,44.8,42.0,35.5,25.3,80,52,36,30.17,30.03,30,10,30,0.00
2013-3-20,66.8,54.3,44.5,43.6,37.2,28.2,74,54,36,30.16,29.97,34,13,35,0.00
2013-3-21,63.7,52.9,45.4,45.9,40.3,33.0,86,64,33,29.98,29.83,39,12,39,0.00
2013-3-22,67.8,52.0,36.9,47.5,36.7,22.0,86,61,19,29.94,29.77,32,9,32,0.00
2013-3-23,65.3,50.6,35.4,33.8,23.2,16.4,74,37,19,30.10,29.93,28,6,28,0.00
2013-3-24,67.9,50.5,36.2,42.7,29.2,19.6,85,51,16,30.11,30.02,14,2,14,0.00
2013-3-25,72.0,53.4,36.7,46.8,32.9,21.9,74,50,19,30.10,29.99,17,3,17,0.00
2013-3-26,67.1,54.2,45.6,41.9,31.0,17.2,78,43,23,30.02,29.93,27,11,27,0.00
2013-3-27,63.4,52.3,46.1,42.0,31.9,17.3,79,47,31,30.06,29.93,31,12,31,0.00
2013-3-28,69.0,53.7,42.3,44.8,37.9,28.5,83,58,32,30.14,30.05,24,7,24,0.00
2013-3-29,71.2,54.6,38.6,49.7,38.9,28.9,83,60,28,30.19,30.12,17,3,17,0.00
2013-3-30,68.3,55.3,42.7,47.6,40.8,29.1,82,60,38,30.16,30.07,25,7,25,0.00
2013-3-31,58.7,49.4,42.5,45.3,39.1,24.5,86,69,42,30.13,30.06,35,15,35,0.00
2013-4-1,56.0,45.6,41.0,43.9,39.5,37.3,87,80,57,30.18,30.09,44,18,44,0.00
2013-4-2,66.2,51.2,41.6,47.9,40.5,28.7,87,70,25,30.16,30.07,31,8,31,0.00
2013-4-3,74.3,54.3,38.3,50.8,36.4,28.7,86,57,20,30.19,30.10,18,3,19,0.00
2013-4-4,68.7,55.9,42.9,42.8,36.2,27.8,78,50,25,30.16,30.03,36,11,39,0.00
2013-4-5,61.9,51.1,45.6,47.9,43.5,35.8,86,76,50,30.08,29.99,40,20,41,0.00
2013-4-6,64.9,52.2,43.7,49.1,43.6,37.0,87,74,50,30.10,29.99,35,14,35,0.00
2013-4-7,71.3,55.0,43.4,51.4,42.6,34.3,86,65,30,30.02,29.80,29,9,29,0.00
2013-4-8,48.0,40.9,37.1,43.1,37.0,33.3,92,86,80,29.89,29.65,49,23,49,0.00
2013-4-9,58.5,44.1,35.8,37.9,33.0,27.8,92,67,35,30.15,29.88,30,9,31,0.00
2013-4-10,67.1,49.2,33.9,32.8,24.6,15.5,66,41,15,30.24,30.14,23,4,23,0.00
2013-4-11,68.5,55.1,42.0,41.5,29.9,14.7,60,39,26,30.16,29.84,32,11,36,0.00
2013-4-12,73.7,54.8,38.9,49.3,34.1,26.8,74,50,19,29.95,29.81,22,3,22,0.00
2013-4-13,69.6,56.2,44.2,46.8,36.1,19.5,72,48,27,29.95,29.82,38,13,38,0.00
2013-4-14,60.4,50.2,41.5,46.7,38.1,1.5,86,66,13,29.83,29.74,39,18,39,0.00
2013-4-15,45.4,41.9,38.0,41.8,38.3,34.8,92,87,85,29.92,29.80,47,23,47,0.00
2013-4-16,46.1,37.7,32.5,36.0,33.1,29.1,92,84,67,30.07,29.84,49,21,49,0.00
2013-4-17,59.2,43.0,30.6,33.1,25.3,10.8,89,56,15,30.27,30.07,26,5,26,0.00
2013-4-18,60.9,46.3,31.1,19.4,14.7,9.7,58,29,16,30.34,30.26,27,6,27,0.00
2013-4-19,70.3,56.3,43.7,26.0,14.4,5.8,40,20,10,30.31,30.07,25,9,25,0.00
2013-4-20,77.5,60.1,45.5,36.4,25.1,13.5,56,29,13,30.08,29.99,25,6,25,0.00
2013-4-21,78.8,59.6,42.5,43.2,33.8,21.4,67,41,16,30.10,30.01,22,5,22,0.00
2013-4-22,72.8,58.3,43.9,46.8,33.9,19.0,69,41,24,30.04,29.88,32,10,32,0.00
2013-4-23,73.9,59.3,45.6,37.4,29.3,23.8,59,34,18,29.99,29.86,32,8,32,0.00
2013-4-24,72.8,53.9,43.8,48.0,34.3,20.5,87,53,16,29.95,29.85,25,7,25,0.00
2013-4-25,61.8,47.6,40.5,46.9,41.3,36.3,88,79,57,30.19,29.89,34,13,34,0.00
2013-4-26,43.8,42.4,41.0,39.8,38.7,37.3,87,87,86,30.20,30.18,8,3,8,0.00
2013-4-27,81.5,60.9,42.4,44.5,31.8,18.7,57,38,10,30.23,30.08,13,4,24,0.00
2013-4-28,81.8,63.9,45.5,41.7,33.5,22.6,58,35,13,30.08,29.92,16,7,30,0.00
2013-4-29,81.1,64.8,50.2,43.6,32.0,19.6,43,30,19,29.92,29.79,15,9,26,0.00
2013-4-30,72.2,61.3,49.5,49.9,36.1,14.5,85,43,18,29.82,29.74,20,14,35,0.00
2013-5-1,77.7,61.9,41.8,42.9,30.0,11.5,84,36,15,30.14,29.81,17,9,29,0.00
2013-5-2,73.2,60.7,47.9,17.0,7.1,0.8,26,12,8,30.22,30.12,19,10,28,0.00
2013-5-3,79.6,65.4,44.3,29.5,18.7,5.7,33,18,8,30.15,29.88,20,6,20,0.00
2013-5-4,73.7,57.1,43.3,46.1,24.8,12.6,67,30,14,29.90,29.76,36,12,36,0.00
2013-5-5,56.4,48.4,43.3,46.0,36.5,16.3,87,67,26,29.98,29.78,31,14,31,0.04
2013-5-6,49.9,45.2,43.2,46.1,41.4,39.3,92,86,85,30.07,29.93,41,18,41,0.24
2013-5-7,47.4,43.7,40.6,44.3,40.3,37.0,92,87,86,30.16,30.03,35,16,40,0.22
2013-5-8,57.7,46.8,40.1,50.0,42.6,37.1,94,85,71,30.20,30.13,25,10,25,0.00
2013-5-9,61.8,51.3,44.3,52.5,46.1,40.4,88,83,67,30.16,30.09,23,8,23,0.00
2013-5-10,73.7,58.0,43.2,52.7,44.3,37.8,88,64,28,30.18,30.10,21,4,21,0.00
2013-5-11,81.8,63.5,47.8,47.6,41.2,33.0,83,51,20,30.17,30.09,24,4,24,0.00
2013-5-12,85.6,66.2,48.9,46.8,38.2,28.3,75,42,15,30.17,30.04,22,3,22,0.00
2013-5-13,87.3,68.3,51.0,47.8,40.7,34.7,64,41,17,30.09,29.98,23,4,23,0.00
2013-5-14,81.9,66.4,56.2,46.4,36.0,21.4,56,35,12,30.00,29.90,35,15,35,0.00
2013-5-15,73.5,62.4,54.4,47.4,35.1,18.3,55,37,24,30.01,29.92,33,15,33,0.00
2013-5-28,69.1,57.8,50.1,52.0,46.6,40.7,85,67,49,29.88,29.77,20,16,34,0.00
2013-5-29,79.9,63.6,45.7,51.8,44.9,36.4,80,54,22,29.87,29.77,18,8,29,0.00
2013-5-30,80.2,66.4,53.1,53.2,45.3,36.4,73,48,27,29.88,29.76,16,6,25,0.00
2013-5-31,84.4,68.4,53.2,49.0,41.8,34.0,63,40,23,29.93,29.84,10,6,21,0.00
2013-6-1,91.8,73.2,55.6,57.6,41.9,28.4,62,38,11,29.89,29.77,12,6,24,0.00
2013-6-2,82.4,68.5,55.7,55.5,42.6,30.4,71,41,22,29.80,29.70,14,6,24,0.00
2013-6-3,79.6,66.5,55.1,52.8,41.0,20.7,59,40,18,29.85,29.73,12,9,22,0.00
2013-6-4,77.7,65.2,53.7,51.3,33.8,-1.2,68,34,8,29.94,29.83,22,8,22,0.00
2013-6-5,81.4,65.2,48.7,53.2,34.8,12.4,65,35,14,30.00,29.91,19,6,19,0.00
2013-6-6,82.5,66.4,49.8,53.3,42.5,22.1,72,44,19,29.94,29.87,20,6,20,0.00
2013-6-7,96.2,72.0,53.0,56.8,38.1,25.6,54,32,10,29.90,29.76,22,4,22,0.00
2013-6-8,93.6,72.8,56.2,55.3,38.8,28.0,50,32,10,29.86,29.75,18,4,18,0.00
2013-6-9,89.2,71.9,58.1,51.9,27.2,5.1,41,20,8,29.88,29.82,22,5,22,0.00
2013-6-10,78.9,69.2,59.0,49.8,29.7,2.3,58,26,8,29.90,29.80,28,11,28,0.00
2013-6-11,88.0,71.7,58.0,55.0,34.9,19.9,48,28,11,29.97,29.88,23,6,23,0.00
2013-6-12,84.5,68.3,57.2,55.5,42.5,28.0,62,40,21,29.97,29.88,23,7,23,0.00
2013-6-13,83.9,68.4,54.8,51.0,36.1,16.2,66,33,15,30.00,29.89,24,10,24,0.00
2013-6-14,83.3,67.4,53.1,47.6,28.9,7.2,64,25,10,29.91,29.81,24,9,24,0.00
2013-6-15,80.3,66.2,54.3,45.8,23.1,-3.3,56,22,7,29.95,29.84,27,9,27,0.00
2013-6-16,82.0,64.9,47.1,49.6,23.3,-8.0,62,25,7,30.04,29.94,21,9,21,0.00
2013-6-17,83.4,67.1,49.9,46.8,38.4,27.3,58,38,16,29.99,29.91,22,9,22,0.00
2013-6-18,82.3,66.8,54.7,50.7,35.9,24.0,57,33,21,29.91,29.82,29,13,29,0.00
2013-6-19,80.0,66.1,53.9,46.0,30.0,10.7,58,27,16,29.85,29.77,30,13,30,0.00
2013-6-20,81.5,66.4,55.0,44.3,34.6,21.1,60,33,14,29.88,29.76,27,12,27,0.00
2013-6-21,79.3,65.5,54.6,48.8,33.8,17.0,59,32,16,29.92,29.82,27,11,27,0.00
2013-6-22,80.5,66.7,56.0,48.6,36.3,21.4,63,34,22,29.92,29.82,24,12,24,0.00
2013-6-23,76.8,64.2,55.0,50.1,40.5,33.8,64,43,30,29.85,29.75,35,14,35,0.00
2013-6-24,72.3,61.6,55.0,51.1,40.7,24.8,81,49,24,29.92,29.76,35,16,35,0.00
2013-6-25,79.8,65.5,54.8,58.0,51.7,44.7,80,63,42,30.02,29.91,29,10,29,0.00
2013-6-26,88.2,72.6,57.7,58.0,53.1,49.6,77,53,32,30.01,29.95,18,4,18,0.00
2013-6-27,91.2,74.0,58.2,56.7,50.9,36.2,76,48,17,30.05,29.99,21,6,21,0.00
2013-6-28,95.5,78.0,62.7,51.7,45.8,30.0,66,36,15,30.02,29.88,28,9,28,0.00
2013-6-29,98.8,81.4,67.0,53.0,43.8,31.9,49,28,16,29.90,29.75,22,7,22,0.00
2013-6-30,101.7,80.9,65.7,56.3,46.9,38.1,49,33,13,29.82,29.73,22,4,22,0.00
2013-7-1,91.8,79.1,67.8,59.5,50.7,44.4,66,38,25,29.87,29.78,22,7,22,0.00
2013-7-2,91.6,77.4,67.0,56.7,46.8,41.3,52,34,24,29.97,29.86,27,10,27,0.00
2013-7-3,90.6,77.5,71.7,53.7,44.2,36.7,38,31,21,29.90,29.77,28,14,28,0.00
2013-7-4,72.7,71.5,69.5,40.6,38.8,37.1,33,31,29,29.80,29.75,24,12,24,0.00
2013-7-5,90.2,76.9,67.5,56.4,47.6,41.0,54,36,23,29.79,29.71,12,8,22,0.00
2013-7-6,88.6,73.2,60.2,58.4,52.8,48.9,70,51,30,29.78,29.72,10,4,20,0.00
2013-7-7,90.9,74.5,59.6,53.8,45.6,35.8,69,38,18,29.86,29.77,14,6,25,0.00
2013-7-8,95.1,76.5,58.2,48.7,41.3,32.7,54,31,15,29.95,29.85,14,5,25,0.00
2013-7-9,93.4,78.3,66.5,59.4,48.8,33.6,51,36,25,29.99,29.91,11,5,21,0.00
2013-7-10,87.5,74.2,68.5,57.7,51.7,42.5,65,46,31,29.93,29.86,11,5,20,0.00
2013-7-11,72.4,65.7,58.6,62.2,56.9,47.9,85,74,54,29.96,29.87,12,3,12,0.08
2013-7-15,88.2,74.4,62.7,52.4,45.8,39.8,56,38,25,29.85,29.78,20,10,33,0.00
2013-7-16,85.6,73.1,63.5,45.6,32.6,11.3,35,23,12,29.95,29.81,19,14,33,0.00
2013-7-17,89.9,71.9,57.6,43.0,26.0,10.5,40,20,8,30.05,29.95,13,7,23,0.00
2013-7-18,91.7,72.9,56.5,47.1,36.1,21.2,50,29,13,29.99,29.89,11,5,20,0.00
2013-7-19,91.0,73.5,60.7,56.1,34.2,9.3,41,25,12,29.92,29.82,9,3,19,0.00
2013-7-20,78.0,70.2,61.9,67.1,58.3,10.9,84,68,13,29.87,29.79,12,4,19,0.00
2013-7-21,71.7,65.6,61.5,65.8,59.9,55.9,85,82,71,29.95,29.80,8,2,17,0.21
2013-7-22,72.0,63.6,59.7,65.9,58.1,54.5,86,82,78,30.00,29.93,10,2,10,0.00
2013-8-8,82.2,69.8,60.4,35.7,24.5,6.5,30,19,10,29.99,29.89,19,14,34,0.00
2013-8-9,81.7,66.9,55.2,48.8,30.9,13.3,60,28,10,29.95,29.86,15,10,28,0.00
2013-8-10,80.0,64.3,51.0,46.3,30.3,11.9,62,30,11,30.02,29.95,12,7,22,0.00
2013-8-11,84.9,64.6,46.2,51.1,39.3,25.2,71,42,17,30.03,29.94,10,4,19,0.00
2013-8-12,84.9,67.6,51.1,48.5,38.6,25.5,65,37,20,29.99,29.94,12,6,23,0.00
2013-8-13,91.6,71.0,53.1,51.6,32.1,15.4,44,26,13,30.00,29.91,9,3,22,0.00
2013-8-14,93.3,74.6,55.7,52.4,44.5,36.6,60,37,19,29.96,29.86,18,4,18,0.00
2013-8-15,66.1,64.6,62.9,38.9,35.6,31.6,41,34,28,29.94,29.91,6,2,6,0.00
2013-8-21,93.5,76.1,59.5,45.4,40.1,30.8,50,29,18,29.93,29.86,11,5,20,0.00
2013-8-22,94.2,77.3,64.3,60.9,46.8,38.2,65,37,21,29.92,29.82,12,5,22,0.00
2013-8-23,88.4,72.6,59.3,59.9,48.8,40.8,58,44,26,29.86,29.77,10,4,21,0.00
2013-8-24,82.2,69.8,60.0,65.2,52.4,38.7,83,56,25,29.91,29.80,15,5,25,0.00
2013-8-25,77.8,67.1,62.0,66.5,59.5,45.1,84,77,49,29.98,29.88,10,5,20,1.40
2013-8-26,67.6,64.9,62.6,62.9,59.6,57.0,86,83,80,29.99,29.92,9,5,17,0.08
2013-8-27,80.0,70.2,61.2,67.4,62.2,56.7,86,77,57,29.93,29.82,17,4,17,0.15
2013-8-28,85.6,71.8,59.3,64.1,58.5,54.8,85,66,41,29.94,29.84,20,4,20,0.00
2013-9-3,84.3,69.6,59.1,68.4,59.2,54.6,85,72,43,29.99,29.89,8,2,22,0.16
2013-9-4,83.1,70.5,60.7,63.8,58.5,55.8,84,67,44,30.01,29.93,14,2,26,0.00
2013-9-5,88.5,71.6,59.9,65.0,58.1,53.2,83,65,37,29.97,29.90,8,2,20,0.02
2013-9-6,89.3,69.1,60.8,65.2,56.8,51.9,81,67,34,29.97,29.88,8,3,19,0.03
2013-9-7,80.9,68.1,60.2,65.0,59.9,55.3,84,76,53,29.96,29.89,12,4,21,0.05
2013-9-8,84.3,69.1,57.8,59.8,52.0,42.9,85,58,30,29.92,29.82,10,4,21,0.00
2013-9-9,81.1,64.9,54.4,54.7,49.6,45.0,83,61,31,29.85,29.76,18,5,30,0.04
2013-9-10,79.5,68.0,54.4,58.0,53.4,48.1,86,63,35,29.91,29.83,20,5,20,0.00
2013-9-11,81.6,65.5,51.1,53.7,43.0,32.0,78,47,22,30.02,29.94,11,4,22,0.00
2013-9-12,85.5,70.3,53.2,45.7,39.3,31.9,55,34,19,30.00,29.90,22,5,22,0.00
2013-9-13,86.5,68.0,52.7,45.4,38.4,31.6,57,37,16,29.91,29.75,10,4,21,0.00
2013-9-14,89.7,70.7,55.4,48.0,41.6,37.6,58,38,18,29.80,29.72,9,2,19,0.00
2013-9-15,92.0,71.8,58.3,49.6,44.5,38.3,58,40,20,29.84,29.77,11,3,20,0.00
2013-9-16,90.4,71.7,57.7,52.9,43.4,34.2,57,38,18,29.88,29.79,13,5,24,0.00
2013-9-17,62.1,59.0,56.9,43.3,39.6,37.0,58,49,41,29.83,29.78,14,5,14,0.00
2013-9-18,61.6,60.5,58.7,42.1,18.3,13.1,54,20,15,29.78,29.71,26,13,26,0.00
2013-9-25,71.1,59.5,46.3,45.2,35.7,23.8,84,42,28,29.91,29.69,26,19,49,0.00
2013-9-26,58.3,48.8,42.7,45.4,41.7,33.4,85,77,55,29.98,29.67,23,16,38,0.00
2013-9-27,69.9,51.9,34.4,40.9,27.6,19.5,86,46,16,30.14,29.98,9,4,17,0.00
2013-9-28,74.6,56.8,39.9,26.9,22.3,19.0,46,28,14,30.19,30.11,13,6,24,0.00
2013-9-29,80.6,57.9,41.1,33.7,24.7,17.7,48,30,13,30.20,30.10,9,2,19,0.00
2013-9-30,80.4,60.4,44.9,33.6,26.2,16.2,47,30,12,30.12,29.97,11,5,20,0.00
2013-10-1,79.6,61.9,45.8,46.9,30.9,20.6,55,33,14,30.00,29.94,12,7,22,0.00
2013-10-2,75.5,61.2,49.5,50.5,32.5,11.1,79,37,18,29.98,29.88,25,9,25,0.00
2013-10-3,56.2,54.7,53.3,36.1,27.3,16.5,50,35,23,29.92,29.85,23,12,23,0.00
2013-10-4,69.5,56.9,44.6,37.5,19.6,13.4,76,25,13,30.18,29.92,21,10,24,0.00
2013-10-5,68.3,55.3,50.0,21.3,17.8,13.4,29,23,12,30.27,30.16,30,13,30,0.00
2013-10-6,75.3,59.9,42.7,22.5,17.5,12.3,34,20,12,30.21,30.09,19,11,33,0.00
2013-10-7,75.9,57.6,42.0,33.7,19.1,12.2,35,24,10,30.13,30.01,15,7,26,0.00
2013-10-8,67.8,55.6,45.4,48.1,29.5,12.6,85,43,17,30.01,29.77,21,14,37,0.00
2013-10-9,45.4,42.6,40.7,41.2,38.3,36.5,86,85,83,29.81,29.71,48,23,48,0.91
2013-10-22,74.7,57.7,43.2,30.8,24.9,21.6,49,31,14,30.10,30.02,10,6,20,0.00
2013-10-23,76.2,55.7,43.4,48.1,30.4,21.1,73,42,15,30.03,29.94,9,3,18,0.00
2013-10-24,74.1,54.3,40.6,48.9,32.1,22.7,72,48,15,30.13,29.98,7,2,14,0.00
2013-10-25,77.3,57.0,41.2,36.0,27.6,25.0,64,36,15,30.21,30.13,7,2,16,0.00
2013-10-26,74.3,57.6,43.8,34.7,29.9,24.9,54,37,20,30.21,30.12,9,4,19,0.00
2013-10-27,72.7,55.5,42.0,42.0,32.5,27.1,77,45,21,30.12,29.81,24,9,38,0.00
2013-10-28,46.6,43.4,41.0,42.6,39.5,37.4,87,86,77,29.96,29.75,43,26,54,0.10
2013-10-29,42.7,41.5,40.4,39.3,37.8,36.5,88,87,86,30.04,29.95,40,17,40,0.67
2013-10-30,58.6,46.1,34.1,39.4,34.3,29.1,92,66,39,30.19,30.07,13,6,24,0.00
2013-10-31,62.2,50.7,40.2,31.4,28.2,23.9,66,43,26,30.24,30.15,11,7,18,0.00
2013-11-1,66.8,56.6,45.1,31.8,26.7,21.7,53,32,23,30.24,30.11,20,9,21,0.00
2013-11-2,68.1,46.5,36.6,42.2,29.2,16.7,77,54,23,30.14,29.98,20,5,21,0.00
2013-11-3,61.8,53.3,45.8,41.0,28.7,16.5,63,39,28,30.00,29.86,33,15,33,0.00
2013-11-4,50.4,43.1,35.3,41.1,35.9,24.0,87,76,55,30.04,29.83,15,8,28,0.00
2013-11-5,58.8,46.1,32.9,31.6,22.1,9.4,87,44,22,30.30,30.03,14,7,27,0.00
2013-11-6,61.6,51.9,44.6,15.7,8.3,4.7,25,17,12,30.39,30.30,13,10,22,0.00
2013-11-7,68.4,58.2,46.2,22.7,13.7,5.1,32,18,12,30.30,30.15,11,6,20,0.00
2013-11-8,72.2,49.9,39.7,29.2,20.1,14.6,55,33,14,30.19,30.08,7,2,14,0.00
2013-11-9,69.3,51.4,39.7,23.3,16.8,3.7,46,29,9,30.22,30.12,15,2,15,0.00
2013-11-10,69.8,53.8,41.7,34.9,23.5,16.5,50,32,15,30.24,30.17,15,3,15,0.00
2013-11-11,54.2,54.1,54.0,25.7,25.2,24.8,33,32,32,30.17,30.17,11,7,11,0.00
2013-11-12,71.6,60.7,48.0,34.4,31.0,27.9,49,33,23,30.27,30.17,10,6,17,0.00
2013-11-13,74.0,59.1,45.6,35.0,30.8,26.8,57,37,19,30.20,30.08,16,6,16,0.00
2013-11-14,51.5,48.0,44.9,34.1,32.8,30.7,62,56,48,30.09,30.06,10,5,10,0.00
2013-11-15,60.2,49.1,43.3,44.9,39.8,26.9,86,73,32,29.83,29.65,32,15,32,0.00
2013-11-16,44.7,42.4,40.2,41.1,38.3,36.5,87,86,84,30.03,29.77,21,16,36,0.00
2013-11-17,57.1,45.5,33.6,40.3,37.5,30.1,87,74,52,30.19,30.03,13,6,18,0.00
2013-11-18,40.6,37.9,36.5,36.0,33.9,32.7,86,85,84,30.18,30.16,7,4,7,0.00
2013-11-19,48.8,45.5,43.6,43.9,41.2,39.4,87,85,83,30.13,30.01,17,12,29,0.00
2013-11-20,51.4,46.9,42.3,45.5,42.3,37.8,87,84,79,30.03,29.96,30,15,33,0.00
2013-11-21,47.9,46.1,43.3,44.1,42.0,39.4,89,85,84,29.97,29.91,19,12,33,0.40
2013-11-22,43.6,40.6,37.2,39.9,36.9,33.8,88,86,85,30.04,29.91,8,3,14,0.60
2013-11-23,47.8,39.3,32.6,40.2,35.3,29.5,88,86,74,30.21,30.04,6,3,12,0.00
2013-11-24,46.6,38.2,32.4,39.7,34.3,29.1,88,86,73,30.30,30.20,12,3,12,0.00
2013-11-25,58.3,47.6,35.9,37.7,32.9,29.5,83,58,35,30.37,30.30,21,7,22,0.00
2013-11-26,55.7,48.4,44.9,35.1,31.5,27.1,61,52,43,30.35,30.21,23,10,23,0.00
2013-11-27,45.8,45.2,44.6,33.9,33.3,32.5,65,63,61,30.21,30.14,17,9,17,0.00
2013-11-28,54.9,43.8,32.4,33.8,30.8,27.4,84,61,43,30.20,30.05,10,5,19,0.00
2013-11-29,55.6,44.5,36.7,40.1,34.5,30.2,82,68,48,30.31,30.19,10,5,17,0.00
2013-11-30,59.3,45.8,35.5,37.0,33.8,30.6,85,65,41,30.33,30.23,12,5,16,0.00
2013-12-1,61.1,52.5,35.3,32.3,30.3,28.0,81,46,31,30.38,30.30,21,9,22,0.00
2013-12-2,67.6,51.9,35.3,29.9,23.4,15.6,52,34,18,30.30,29.98,33,11,33,0.00
2013-12-3,58.9,47.8,42.9,44.8,27.6,20.3,85,49,27,29.98,29.73,40,18,40,0.01
2013-12-4,44.0,36.5,30.4,38.5,31.6,26.5,92,82,66,30.05,29.73,30,10,51,0.10
2013-12-5,39.6,33.9,32.1,33.6,30.0,28.6,88,86,73,30.14,30.02,21,8,21,0.02
2013-12-6,40.6,33.9,24.9,31.9,28.5,-99.9,88,82,69,30.32,30.22,25,3,25,0.00
2013-12-7,38.5,34.1,31.6,34.9,30.5,27.9,92,87,85,30.22,30.05,57,26,60,0.26
2013-12-8,39.9,33.2,28.0,34.3,29.2,21.4,92,85,76,30.30,30.15,43,12,44,0.00
2013-12-9,34.9,29.0,25.0,21.2,9.8,-1.1,75,46,29,30.55,30.30,29,14,30,0.00
2013-12-10,46.8,37.5,28.0,9.7,0.3,-4.9,29,20,16,30.53,30.32,22,11,27,0.00
2013-12-11,53.1,44.6,38.8,14.2,9.1,2.1,26,23,19,30.35,30.29,20,8,20,0.00
2013-12-12,56.7,43.0,31.5,30.4,18.5,8.1,66,39,23,30.32,30.23,18,5,18,0.00
2013-12-13,55.9,41.9,33.6,21.6,17.4,13.1,50,38,18,30.33,30.26,25,11,25,0.00
2013-12-14,52.5,47.2,42.6,21.2,17.6,13.1,37,30,24,30.46,30.35,32,13,33,0.00
2013-12-15,59.4,51.4,44.8,20.1,16.1,11.3,28,24,20,30.45,30.32,30,13,30,0.00
2013-12-16,67.5,58.4,53.1,26.1,20.6,18.1,27,23,19,30.33,30.22,19,10,20,0.00
2013-12-17,69.3,57.2,44.8,27.3,23.2,19.2,48,28,18,30.26,30.12,18,7,19,0.00
2013-12-18,64.2,51.6,40.3,39.7,29.1,20.5,86,44,20,30.12,29.83,34,8,34,0.00
2013-12-19,40.3,37.0,33.3,36.3,33.2,29.8,88,86,84,29.86,29.72,46,15,47,0.27
2013-12-20,43.5,36.4,28.4,39.2,32.6,25.3,88,86,79,30.08,29.84,17,4,19,0.00
2013-12-21,49.8,39.7,34.2,41.5,33.8,29.3,92,80,62,30.21,30.01,22,7,22,0.00
2013-12-22,55.6,42.8,32.4,33.4,30.1,27.3,85,63,38,30.42,30.21,21,5,23,0.00
2013-12-23,55.4,47.6,43.3,30.4,27.5,24.8,57,46,35,30.49,30.38,30,12,30,0.00
2013-12-24,62.8,53.0,46.2,31.6,27.8,25.5,48,38,28,30.38,30.25,21,9,23,0.00
2013-12-25,57.7,50.2,45.9,28.6,22.0,12.9,46,33,23,30.35,30.25,24,11,26,0.00
2013-12-26,56.1,49.7,46.0,13.1,8.9,4.1,25,19,14,30.33,30.23,29,12,30,0.00
2013-12-27,61.9,49.4,38.3,17.6,10.0,3.9,39,21,13,30.34,30.21,23,7,23,0.00
2013-12-28,61.3,46.2,35.2,28.6,17.4,9.7,47,33,15,30.22,30.07,23,5,24,0.00
2013-12-29,56.1,44.7,33.4,18.9,12.1,3.2,44,27,18,30.32,30.13,21,6,22,0.00
2013-12-30,63.3,46.4,34.0,19.8,6.7,-2.0,43,22,9,30.40,30.30,18,4,18,0.00
2013-12-31,65.1,45.3,34.0,19.4,12.2,1.8,45,28,12,30.36,30.24,15,2,16,0.00
2014-1-1,63.0,50.8,35.4,20.3,15.0,6.1,45,26,14,30.30,30.24,20,7,20,0.00
2014-1-2,63.7,49.9,36.7,27.0,22.5,19.0,58,35,22,30.26,30.13,14,5,14,0.00